Arctic Fury — WDE9335 — position and weather

sailwx.info

Track history (hours):
 
Tides and Currents Weather Stations Pressure Air Temp Water Temp Dewpoint Dewpoint Depression Visibility Wind Speed Wind Dir Waves Ship Positions

Arctic Fury

Owner: Fury Group Inc, Seattle, WA. More information available from US FCC via Universal Licensing System and Coast Guard Vessel Documentation Center.

Last reported at 2017-Jun-27 10:31 UTC. Time now 2017-Jun-27 10:28 UTC.
Position N 46°59' W 124°33'.

Length 43 m; draft 5 m.

Type: Fishing. MMSI: 366468000.

Date/timePositionNaut miles runAvg speedWind from/ knotsBaromVisibWave heightAir tempDewpointWater temp
2017-Jun-27 10:31N 46°59' W 124°33'4 8.2
2017-Jun-27 10:00N 46°58' W 124°27'4 8.5
2017-Jun-27 09:30N 46°56' W 124°21'4 8.5
2017-Jun-27 09:00N 46°55' W 124°15'4 7.8
2017-Jun-27 08:30N 46°55' W 124°09'2 2.9
2017-Jun-27 07:54N 46°54' W 124°06'0 0.0
2017-Jun-27 07:28N 46°54' W 124°06'0 0.0
2017-Jun-27 06:54N 46°54' W 124°06'0 0.0
2017-Jun-27 06:14N 46°54' W 124°06'0 0.0
2017-Jun-27 05:59N 46°54' W 124°06'0 0.0
2017-Jun-27 05:30N 46°54' W 124°06'0 0.0
2017-Jun-27 04:58N 46°54' W 124°06'0 0.0
2017-Jun-27 03:54N 46°54' W 124°06'0 0.0
2017-Jun-27 03:14N 46°54' W 124°06'0 0.0
2017-Jun-27 02:41N 46°54' W 124°06'0 0.0
2017-Jun-27 01:56N 46°54' W 124°06'0 0.0
2017-Jun-27 00:50N 46°54' W 124°06'0 0.0
2017-Jun-27 00:25N 46°54' W 124°06'0 0.0
2017-Jun-26 23:42N 46°54' W 124°06'0 0.0
2017-Jun-26 23:27N 46°54' W 124°06'0 0.0
2017-Jun-26 23:00N 46°54' W 124°06'0 0.0
2017-Jun-26 21:51N 46°54' W 124°06'0 0.0
2017-Jun-26 20:51N 46°54' W 124°06'0 0.0
2017-Jun-26 20:27N 46°54' W 124°06'0 0.1
2017-Jun-26 19:59N 46°54' W 124°06'0 0.0
2017-Jun-26 19:30N 46°54' W 124°06'0 0.0
2017-Jun-26 18:51N 46°54' W 124°06'0 0.0
2017-Jun-26 18:30N 46°54' W 124°06'0 0.0
2017-Jun-26 17:51N 46°54' W 124°06'0 0.0
2017-Jun-26 17:28N 46°54' W 124°06'0 0.0
2017-Jun-26 16:49N 46°54' W 124°06'0 0.0
2017-Jun-26 16:28N 46°54' W 124°06'0 0.0
2017-Jun-26 15:57N 46°54' W 124°06'0 0.0
2017-Jun-26 15:30N 46°54' W 124°06'0 0.0
2017-Jun-26 14:55N 46°54' W 124°06'0 0.0
2017-Jun-26 14:26N 46°54' W 124°06'0 0.0
2017-Jun-26 13:27N 46°54' W 124°06'0 0.0
2017-Jun-26 12:59N 46°54' W 124°06'0 0.0
2017-Jun-26 12:27N 46°54' W 124°06'0 0.0
2017-Jun-26 11:58N 46°54' W 124°06'0 0.0
2017-Jun-26 11:30N 46°54' W 124°06'0 0.0
2017-Jun-26 11:00N 46°54' W 124°06'0 0.0
2017-Jun-26 10:30N 46°54' W 124°06'0 0.0
2017-Jun-26 10:00N 46°54' W 124°06'0 0.0
2017-Jun-26 09:30N 46°54' W 124°06'0 0.0
2017-Jun-26 09:00N 46°54' W 124°06'0 0.0
2017-Jun-26 08:30N 46°54' W 124°06'0 0.0
2017-Jun-26 08:00N 46°54' W 124°06'0 0.0
2017-Jun-26 07:30N 46°54' W 124°06'0 0.0
2017-Jun-26 07:00N 46°54' W 124°06'0 0.0
2017-Jun-26 06:30N 46°54' W 124°06'0 0.0
2017-Jun-26 06:00N 46°54' W 124°06'0 0.0
2017-Jun-26 05:30N 46°54' W 124°06'0 0.3
2017-Jun-26 05:00N 46°55' W 124°06'3 7.0
2017-Jun-26 04:30N 46°55' W 124°12'5 9.5
2017-Jun-26 04:00N 46°53' W 124°18'5 9.7
2017-Jun-26 03:31N 46°51' W 124°25'510.0
2017-Jun-26 03:01N 46°49' W 124°31'510.2
2017-Jun-26 02:30N 46°47' W 124°38'510.3
2017-Jun-26 02:01N 46°45' W 124°45'4 7.5
2017-Jun-26 01:30N 46°43' W 124°49'1 2.3
2017-Jun-26 01:00N 46°42' W 124°48'0 0.9
2017-Jun-26 00:31N 46°42' W 124°49'2 3.2
2017-Jun-26 00:00N 46°44' W 124°50'2 3.3
2017-Jun-25 23:30N 46°45' W 124°50'2 3.5
2017-Jun-25 23:01N 46°47' W 124°51'2 3.3
2017-Jun-25 22:30N 46°48' W 124°53'2 3.6
2017-Jun-25 22:00N 46°50' W 124°54'0 0.5
2017-Jun-25 21:31N 46°50' W 124°54'3 5.2
2017-Jun-25 21:00N 46°48' W 124°53'1 2.5
2017-Jun-25 20:30N 46°47' W 124°52'1 1.0
2017-Jun-25 20:00N 46°47' W 124°51'1 2.6
2017-Jun-25 19:30N 46°48' W 124°52'2 3.2
2017-Jun-25 19:00N 46°49' W 124°54'2 3.0
2017-Jun-25 18:30N 46°50' W 124°55'2 3.7
2017-Jun-25 18:01N 46°52' W 124°55'2 3.7
2017-Jun-25 17:30N 46°52' W 124°53'5 9.2
2017-Jun-25 17:00N 46°53' W 124°46'5 9.4
2017-Jun-25 16:31N 46°54' W 124°39'5 9.6
2017-Jun-25 16:01N 46°54' W 124°32'5 9.7
2017-Jun-25 15:30N 46°54' W 124°25'510.1
2017-Jun-25 15:00N 46°54' W 124°18'8 7.6
2017-Jun-25 14:00N 46°54' W 124°06'0 0.0
2017-Jun-25 13:29N 46°54' W 124°06'0 0.0
2017-Jun-25 13:00N 46°54' W 124°06'0 0.0
2017-Jun-25 12:30N 46°54' W 124°06'0 0.0
2017-Jun-25 12:00N 46°54' W 124°06'0 0.0
2017-Jun-25 11:29N 46°54' W 124°06'0 0.0
2017-Jun-25 11:00N 46°54' W 124°06'0 0.0
2017-Jun-25 10:28N 46°54' W 124°06'0 0.0
2017-Jun-25 09:59N 46°54' W 124°06'0 0.0
2017-Jun-25 09:30N 46°54' W 124°06'0 0.0
2017-Jun-25 09:00N 46°54' W 124°06'0 0.0
2017-Jun-25 08:30N 46°54' W 124°06'0 0.0
2017-Jun-25 07:59N 46°54' W 124°06'0 0.0
2017-Jun-25 07:30N 46°54' W 124°06'0 0.0
2017-Jun-25 07:00N 46°54' W 124°06'0 0.0
2017-Jun-25 06:30N 46°54' W 124°06'0 0.4
2017-Jun-25 06:00N 46°55' W 124°07'0 0.1
2017-Jun-25 04:31N 46°55' W 124°07'0 0.0
2017-Jun-25 04:28N 46°55' W 124°07'0 0.0
2017-Jun-25 03:58N 46°55' W 124°07'0 0.0
2017-Jun-25 03:30N 46°55' W 124°07'0 0.0
2017-Jun-25 03:00N 46°55' W 124°07'0 0.0
2017-Jun-25 02:30N 46°55' W 124°07'2 4.4
2017-Jun-25 02:00N 46°55' W 124°10'5 9.0
2017-Jun-25 01:30N 46°58' W 124°15'510.5
2017-Jun-25 01:00N 47°02' W 124°20'510.3
2017-Jun-25 00:30N 47°06' W 124°24'510.9
2017-Jun-25 00:00N 47°10' W 124°29'611.2
2017-Jun-24 23:30N 47°15' W 124°35'611.2
2017-Jun-24 22:59N 47°19' W 124°40'610.1
2017-Jun-24 22:23N 47°24' W 124°45'411.0
2017-Jun-24 22:00N 47°27' W 124°49'711.1
2017-Jun-24 21:24N 47°32' W 124°55'910.7
2017-Jun-24 20:37N 47°39' W 125°03'2 5.4
2017-Jun-24 20:15N 47°40' W 125°05'1 2.7
2017-Jun-24 19:57N 47°41' W 125°06'2 2.7
2017-Jun-24 19:21N 47°43' W 125°05'1 3.6
2017-Jun-24 19:00N 47°44' W 125°05'1 2.4
2017-Jun-24 18:30N 47°45' W 125°05'1 2.9
2017-Jun-24 18:00N 47°45' W 125°03'2 3.4
2017-Jun-24 17:28N 47°44' W 125°04'3 1.8
2017-Jun-24 15:51N 47°41' W 125°06'18 8.9
2017-Jun-24 13:50N 47°26' W 124°50'3 8.8
2017-Jun-24 13:30N 47°24' W 124°48'4 8.6
2017-Jun-24 13:00N 47°20' W 124°47'4 8.1
2017-Jun-24 12:30N 47°16' W 124°43'5 7.9
2017-Jun-24 11:50N 47°13' W 124°38'3 7.8
2017-Jun-24 11:30N 47°11' W 124°35'4 7.8
2017-Jun-24 11:00N 47°08' W 124°31'4 8.0
2017-Jun-24 10:30N 47°05' W 124°27'4 8.1
2017-Jun-24 10:00N 47°02' W 124°23'4 8.1
2017-Jun-24 09:31N 46°59' W 124°19'4 8.1
2017-Jun-24 09:00N 46°56' W 124°15'5 9.4
2017-Jun-24 08:30N 46°55' W 124°08'1 2.3
2017-Jun-24 08:00N 46°54' W 124°06'0 0.0
2017-Jun-24 07:30N 46°54' W 124°06'0 0.0
2017-Jun-24 07:00N 46°54' W 124°06'0 0.0
2017-Jun-24 06:30N 46°54' W 124°06'0 0.0
2017-Jun-24 06:00N 46°54' W 124°06'0 0.0
2017-Jun-24 05:30N 46°54' W 124°06'0 0.0
2017-Jun-24 05:00N 46°54' W 124°06'0 0.0
2017-Jun-24 04:30N 46°54' W 124°06'0 0.0
2017-Jun-24 04:00N 46°54' W 124°06'0 0.0
2017-Jun-24 03:29N 46°54' W 124°06'0 0.0
2017-Jun-24 03:00N 46°54' W 124°06'4 7.9
2017-Jun-24 02:30N 46°55' W 124°12'4 8.3
2017-Jun-24 02:00N 46°54' W 124°06'0 0.0
2017-Jun-24 01:29N 46°54' W 124°06'2 3.3
2017-Jun-24 00:54N 46°55' W 124°09'3 8.4
2017-Jun-24 00:31N 46°56' W 124°13'611.0
2017-Jun-24 00:00N 47°01' W 124°18'611.2
2017-Jun-23 23:30N 47°05' W 124°23'611.1
2017-Jun-23 23:00N 47°10' W 124°28'611.2
2017-Jun-23 22:28N 47°15' W 124°33'611.5
2017-Jun-23 22:00N 47°19' W 124°38'611.5
2017-Jun-23 21:30N 47°23' W 124°43'611.3
2017-Jun-23 21:00N 47°28' W 124°48'611.2
2017-Jun-23 20:30N 47°32' W 124°53'611.1
2017-Jun-23 20:00N 47°37' W 124°58'510.5
2017-Jun-23 19:30N 47°41' W 125°03'4 7.0
2017-Jun-23 19:00N 47°44' W 125°06'1 2.0
2017-Jun-23 18:30N 47°45' W 125°07'1 2.0
2017-Jun-23 18:00N 47°45' W 125°05'1 2.2
2017-Jun-23 17:30N 47°44' W 125°05'2 3.2
2017-Jun-23 17:00N 47°42' W 125°05'1 2.9
2017-Jun-23 16:30N 47°41' W 125°07'4 8.8
2017-Jun-23 16:00N 47°37' W 125°06'0 0.5
2017-Jun-23 15:29N 47°37' W 125°05'4 8.7
2017-Jun-23 15:00N 47°33' W 125°03'4 8.5
2017-Jun-23 14:29N 47°30' W 124°58'4 8.6
2017-Jun-23 14:00N 47°28' W 124°53'4 7.4
2017-Jun-23 13:30N 47°26' W 124°49'3 6.3
2017-Jun-23 13:00N 47°23' W 124°48'3 5.2
2017-Jun-23 12:30N 47°20' W 124°46'2 3.9
2017-Jun-23 12:00N 47°18' W 124°46'2 4.2
2017-Jun-23 11:30N 47°16' W 124°46'2 4.2
2017-Jun-23 11:00N 47°18' W 124°46'2 3.7
2017-Jun-23 10:30N 47°20' W 124°47'2 3.3
2017-Jun-23 10:00N 47°20' W 124°49'1 2.0
2017-Jun-23 09:30N 47°19' W 124°49'1 2.0
2017-Jun-23 09:00N 47°19' W 124°48'1 2.0
2017-Jun-23 08:30N 47°18' W 124°47'2 4.5
2017-Jun-23 08:00N 47°20' W 124°48'1 1.9
2017-Jun-23 07:30N 47°21' W 124°49'1 1.8
2017-Jun-23 07:00N 47°20' W 124°49'1 1.7
2017-Jun-23 06:30N 47°19' W 124°49'1 1.5
2017-Jun-23 06:00N 47°18' W 124°48'1 1.1
2017-Jun-23 05:30N 47°18' W 124°47'2 3.4
2017-Jun-23 05:00N 47°20' W 124°47'1 2.7
2017-Jun-23 04:30N 47°21' W 124°47'2 3.7
2017-Jun-23 04:00N 47°23' W 124°47'2 3.9
2017-Jun-23 03:30N 47°25' W 124°49'3 3.6
2017-Jun-23 02:47N 47°27' W 124°51'1 4.5
2017-Jun-23 02:29N 47°28' W 124°52'1 1.7
2017-Jun-23 02:00N 47°27' W 124°51'1 2.3
2017-Jun-23 01:30N 47°27' W 124°50'1 1.1
2017-Jun-23 01:00N 47°27' W 124°50'2 3.1
2017-Jun-23 00:20N 47°25' W 124°48'1 3.0
2017-Jun-23 00:00N 47°24' W 124°47'2 3.1
2017-Jun-22 23:30N 47°22' W 124°47'2 3.2
2017-Jun-22 23:00N 47°21' W 124°47'1 1.8
2017-Jun-22 22:30N 47°20' W 124°47'1 2.1
2017-Jun-22 22:00N 47°19' W 124°46'4 8.2
2017-Jun-22 21:30N 47°16' W 124°42'4 8.2
2017-Jun-22 21:00N 47°13' W 124°38'4 8.5
2017-Jun-22 20:30N 47°10' W 124°34'4 8.6
2017-Jun-22 20:00N 47°07' W 124°29'1225.1
2017-Jun-22 19:30N 46°57' W 124°17'4 8.6
2017-Jun-22 19:00N 47°01' W 124°21'4 8.7
2017-Jun-22 18:30N 46°57' W 124°17'2 4.4
2017-Jun-22 18:01N 46°56' W 124°15'4 8.0
2017-Jun-22 17:30N 46°55' W 124°09'2 3.5
2017-Jun-22 16:59N 46°54' W 124°06'0 0.0
2017-Jun-22 16:30N 46°54' W 124°06'0 0.0
2017-Jun-22 16:00N 46°54' W 124°06'0 0.0
2017-Jun-22 15:30N 46°54' W 124°06'0 0.0
2017-Jun-22 15:00N 46°54' W 124°06'0 0.0
2017-Jun-22 14:00N 46°54' W 124°06'0 0.0
2017-Jun-22 13:30N 46°54' W 124°06'0 0.0
2017-Jun-22 13:00N 46°54' W 124°06'0 0.0
2017-Jun-22 12:30N 46°54' W 124°06'0 0.0
2017-Jun-22 12:00N 46°54' W 124°06'0 0.0
2017-Jun-22 11:29N 46°54' W 124°06'0 0.0
2017-Jun-22 11:00N 46°54' W 124°06'0 0.0
2017-Jun-22 10:30N 46°54' W 124°06'0 0.0
2017-Jun-22 10:00N 46°54' W 124°06'0 0.0
2017-Jun-22 09:30N 46°54' W 124°06'0 0.0
2017-Jun-22 09:00N 46°54' W 124°06'0 0.0
2017-Jun-22 08:30N 46°54' W 124°06'0 0.0
2017-Jun-22 08:00N 46°54' W 124°06'0 0.0
2017-Jun-22 07:29N 46°54' W 124°06'0 0.0
2017-Jun-22 07:00N 46°54' W 124°06'0 0.0
2017-Jun-22 06:29N 46°54' W 124°06'0 0.0
2017-Jun-22 06:00N 46°54' W 124°06'0 0.0
2017-Jun-22 05:29N 46°54' W 124°06'0 0.0
2017-Jun-22 05:00N 46°54' W 124°06'0 0.0
2017-Jun-22 04:30N 46°54' W 124°06'0 0.0
2017-Jun-22 04:00N 46°54' W 124°06'0 0.0
2017-Jun-22 03:30N 46°54' W 124°06'0 0.0
2017-Jun-22 02:42N 46°54' W 124°06'0 0.0
2017-Jun-22 02:27N 46°54' W 124°06'613.7
2017-Jun-22 01:59N 46°57' W 124°15'5 9.1
2017-Jun-22 01:29N 46°55' W 124°09'5 9.8
2017-Jun-22 01:00N 46°57' W 124°14'510.8
2017-Jun-22 00:30N 47°01' W 124°20'32 8.9
2017-Jun-21 20:54N 47°26' W 124°50'18 3.2
2017-Jun-21 15:17N 47°11' W 124°36'3 8.5
2017-Jun-21 14:55N 47°09' W 124°33'4 8.6
2017-Jun-21 14:30N 47°06' W 124°29'9 8.6
2017-Jun-21 13:30N 46°60' W 124°21'4 8.1
2017-Jun-21 13:00N 46°57' W 124°17'3 7.0
2017-Jun-21 12:30N 46°55' W 124°12'4 7.9
2017-Jun-21 12:00N 46°54' W 124°06'0 0.1
2017-Jun-21 10:24N 46°54' W 124°06'0 0.0
2017-Jun-21 09:59N 46°54' W 124°06'0 0.0
2017-Jun-21 09:16N 46°54' W 124°06'0 0.0
2017-Jun-21 09:00N 46°54' W 124°06'0 0.0
2017-Jun-21 08:30N 46°54' W 124°06'0 0.0
2017-Jun-21 08:00N 46°54' W 124°06'0 0.0
2017-Jun-21 07:29N 46°54' W 124°06'0 0.0
2017-Jun-21 07:00N 46°54' W 124°06'0 0.0
2017-Jun-21 06:30N 46°54' W 124°06'0 0.0
2017-Jun-21 06:00N 46°54' W 124°06'0 0.0
2017-Jun-21 05:30N 46°54' W 124°06'0 0.0
2017-Jun-21 04:58N 46°54' W 124°06'0 0.0
2017-Jun-21 04:30N 46°54' W 124°06'0 0.0
2017-Jun-21 04:00N 46°54' W 124°06'0 0.0
2017-Jun-21 03:29N 46°54' W 124°06'0 0.0
2017-Jun-21 02:58N 46°54' W 124°06'0 0.0
2017-Jun-21 02:30N 46°54' W 124°06'0 0.0
2017-Jun-21 01:59N 46°54' W 124°06'0 0.0
2017-Jun-21 01:30N 46°54' W 124°06'0 0.0
2017-Jun-21 00:59N 46°54' W 124°06'0 0.0
2017-Jun-21 00:27N 46°54' W 124°06'0 0.0
2017-Jun-20 23:58N 46°54' W 124°06'0 0.0
2017-Jun-20 23:29N 46°54' W 124°06'0 0.0
2017-Jun-20 23:00N 46°54' W 124°06'0 0.0
2017-Jun-20 22:30N 46°54' W 124°06'0 0.0
2017-Jun-20 21:59N 46°54' W 124°06'0 0.0
2017-Jun-20 21:30N 46°54' W 124°06'2 4.5
2017-Jun-20 21:01N 46°55' W 124°10'510.1
2017-Jun-20 20:28N 46°58' W 124°16'511.5
2017-Jun-20 20:00N 47°02' W 124°21'24 2.9
2017-Jun-20 11:38N 47°19' W 124°47'1 4.2
2017-Jun-20 11:17N 47°20' W 124°48'1 4.1
2017-Jun-20 10:59N 47°22' W 124°48'1 1.8
2017-Jun-20 10:13N 47°23' W 124°49'0 0.5
2017-Jun-20 09:59N 47°23' W 124°49'1 0.4
2017-Jun-20 08:28N 47°23' W 124°50'0 0.4
2017-Jun-20 07:56N 47°23' W 124°51'0 0.3
2017-Jun-20 06:09N 47°23' W 124°51'3 2.3
2017-Jun-20 04:37N 47°26' W 124°49'2 1.4
2017-Jun-20 03:04N 47°27' W 124°51'0 3.6
2017-Jun-20 02:59N 47°27' W 124°50'4 3.2
2017-Jun-20 01:50N 47°24' W 124°48'9 3.7
2017-Jun-19 23:18N 47°16' W 124°55'8 9.1
2017-Jun-19 22:22N 47°08' W 124°60'4 9.5
2017-Jun-19 22:00N 47°05' W 124°58'6 8.3
2017-Jun-19 21:16N 46°59' W 124°59'3 9.8
2017-Jun-19 21:00N 46°57' W 124°57'6 9.8
2017-Jun-19 20:26N 46°51' W 124°55'4 9.7
2017-Jun-19 20:00N 46°47' W 124°53'5 9.4
2017-Jun-19 19:30N 46°43' W 124°49'5 9.3
2017-Jun-19 19:01N 46°40' W 124°44'2 3.2
2017-Jun-19 18:31N 46°39' W 124°43'1 2.4
2017-Jun-19 18:01N 46°38' W 124°42'2 3.3
2017-Jun-19 17:31N 46°37' W 124°40'2 3.4
2017-Jun-19 17:01N 46°36' W 124°38'1 1.3
2017-Jun-19 16:29N 46°35' W 124°38'1 3.1
2017-Jun-19 16:00N 46°36' W 124°39'2 3.3
2017-Jun-19 15:30N 46°37' W 124°41'2 3.5
2017-Jun-19 15:00N 46°39' W 124°42'3 2.8
2017-Jun-19 14:01N 46°39' W 124°46'4 8.4
2017-Jun-19 13:30N 46°43' W 124°49'4 8.5
2017-Jun-19 13:00N 46°47' W 124°52'4 8.9
2017-Jun-19 12:30N 46°50' W 124°56'3 6.0
2017-Jun-19 11:58N 46°53' W 124°54'0 0.6
2017-Jun-19 11:30N 46°54' W 124°54'1 2.4
2017-Jun-19 11:00N 46°54' W 124°53'2 3.4
2017-Jun-19 10:30N 46°54' W 124°50'3 3.4
2017-Jun-19 09:44N 46°54' W 124°46'1 3.5
2017-Jun-19 09:24N 46°54' W 124°44'1 3.5
2017-Jun-19 09:00N 46°54' W 124°42'2 3.5
2017-Jun-19 08:30N 46°54' W 124°40'2 3.5
2017-Jun-19 08:00N 46°54' W 124°37'2 3.3
2017-Jun-19 07:30N 46°54' W 124°35'2 3.1
2017-Jun-19 07:01N 46°54' W 124°33'2 3.2
2017-Jun-19 06:30N 46°54' W 124°30'2 3.2
2017-Jun-19 06:00N 46°54' W 124°28'2 3.5
2017-Jun-19 05:31N 46°54' W 124°25'2 3.8
2017-Jun-19 05:01N 46°55' W 124°23'2 3.7
2017-Jun-19 04:31N 46°55' W 124°20'2 3.5
2017-Jun-19 04:01N 46°55' W 124°17'3 7.0
2017-Jun-19 03:30N 46°55' W 124°12'4 7.6
2017-Jun-19 02:59N 46°54' W 124°06'0 0.1
2017-Jun-19 02:13N 46°54' W 124°06'0 0.0
2017-Jun-19 01:43N 46°54' W 124°06'0 0.0
2017-Jun-19 01:25N 46°54' W 124°06'0 0.0
2017-Jun-19 00:58N 46°54' W 124°06'0 0.0
2017-Jun-19 00:21N 46°54' W 124°06'0 0.0
2017-Jun-18 23:53N 46°54' W 124°06'0 0.0
2017-Jun-18 22:41N 46°54' W 124°06'0 0.0
2017-Jun-18 22:30N 46°54' W 124°06'0 0.0
2017-Jun-18 21:54N 46°54' W 124°06'0 0.0
2017-Jun-18 21:30N 46°54' W 124°06'0 0.0
2017-Jun-18 20:46N 46°54' W 124°06'0 0.0
2017-Jun-18 20:25N 46°54' W 124°06'0 0.0
2017-Jun-18 20:00N 46°54' W 124°06'0 0.0
2017-Jun-18 19:05N 46°54' W 124°06'0 0.1
2017-Jun-18 19:00N 46°54' W 124°06'0 0.0
2017-Jun-18 18:27N 46°54' W 124°06'0 0.0
2017-Jun-18 18:00N 46°54' W 124°06'0 0.0
2017-Jun-18 17:30N 46°54' W 124°06'0 0.0
2017-Jun-18 17:00N 46°54' W 124°06'0 0.0
2017-Jun-18 16:30N 46°54' W 124°06'0 0.0
2017-Jun-18 15:56N 46°54' W 124°06'0 0.0
2017-Jun-18 15:30N 46°54' W 124°06'0 0.0
2017-Jun-18 15:00N 46°54' W 124°06'0 0.0
2017-Jun-18 13:59N 46°54' W 124°06'0 0.0
2017-Jun-18 13:30N 46°54' W 124°06'0 0.0
2017-Jun-18 13:00N 46°54' W 124°06'0 0.0
2017-Jun-18 12:29N 46°54' W 124°06'0 0.0
2017-Jun-18 12:00N 46°54' W 124°06'0 0.0
2017-Jun-18 11:30N 46°54' W 124°06'0 0.0
2017-Jun-18 10:59N 46°54' W 124°06'0 0.0
2017-Jun-18 10:30N 46°54' W 124°06'0 0.0
2017-Jun-18 10:00N 46°54' W 124°06'0 0.0
2017-Jun-18 09:30N 46°54' W 124°06'0 0.0
2017-Jun-18 09:00N 46°54' W 124°06'0 0.0
2017-Jun-18 08:30N 46°54' W 124°06'0 0.0
2017-Jun-18 08:00N 46°54' W 124°06'0 0.0
2017-Jun-18 07:30N 46°54' W 124°06'0 0.0
2017-Jun-18 07:00N 46°54' W 124°06'0 0.0
2017-Jun-18 06:30N 46°54' W 124°06'0 0.0
2017-Jun-18 05:59N 46°54' W 124°06'0 0.0
2017-Jun-18 05:30N 46°54' W 124°06'0 0.0
2017-Jun-18 04:58N 46°54' W 124°06'0 0.3
2017-Jun-18 04:31N 46°55' W 124°06'3 6.8
2017-Jun-18 04:00N 46°55' W 124°12'5 9.2
2017-Jun-18 03:30N 46°52' W 124°17'5 9.3
2017-Jun-18 03:00N 46°49' W 124°22'5 9.0
2017-Jun-18 02:30N 46°46' W 124°27'5 9.2
2017-Jun-18 02:00N 46°44' W 124°33'5 9.7
2017-Jun-18 01:31N 46°41' W 124°38'3 6.0
2017-Jun-18 01:00N 46°39' W 124°42'1 1.2
2017-Jun-18 00:31N 46°38' W 124°42'1 3.0
2017-Jun-18 00:00N 46°37' W 124°41'2 3.4
2017-Jun-17 23:30N 46°36' W 124°39'1 2.2
2017-Jun-17 23:00N 46°35' W 124°38'1 2.7
2017-Jun-17 22:31N 46°36' W 124°39'2 3.4
2017-Jun-17 22:01N 46°37' W 124°41'2 3.7
2017-Jun-17 21:31N 46°39' W 124°43'1 2.9
2017-Jun-17 21:01N 46°38' W 124°41'1 1.5
2017-Jun-17 20:31N 46°38' W 124°40'1 1.7
2017-Jun-17 20:00N 46°38' W 124°41'1 1.9
2017-Jun-17 19:30N 46°37' W 124°40'2 3.5
2017-Jun-17 19:00N 46°36' W 124°39'1 2.1
2017-Jun-17 18:31N 46°35' W 124°37'2 3.2
2017-Jun-17 18:01N 46°37' W 124°39'2 3.2
2017-Jun-17 17:31N 46°38' W 124°41'2 3.7
2017-Jun-17 17:00N 46°39' W 124°42'2 4.2
2017-Jun-17 16:30N 46°37' W 124°40'2 3.9
2017-Jun-17 16:01N 46°38' W 124°43'0 0.2
2017-Jun-17 15:30N 46°38' W 124°43'1 1.9
2017-Jun-17 15:00N 46°39' W 124°42'0 0.3
2017-Jun-17 14:00N 46°39' W 124°42'5 9.9
2017-Jun-17 13:30N 46°42' W 124°37'5 9.8
2017-Jun-17 13:01N 46°45' W 124°31'5 9.7
2017-Jun-17 12:30N 46°48' W 124°26'5 9.9
2017-Jun-17 11:59N 46°51' W 124°20'5 9.3
2017-Jun-17 11:30N 46°54' W 124°15'5 9.7
2017-Jun-17 11:00N 46°55' W 124°08'1 2.0
2017-Jun-17 10:26N 46°54' W 124°06'  
Track history (hours):
 
Tides and Currents Weather Stations Pressure Air Temp Water Temp Dewpoint Dewpoint Depression Visibility Wind Speed Wind Dir Waves Ship Positions

Arctic Fury

Owner: Fury Group Inc, Seattle, WA. More information available from US FCC via Universal Licensing System and Coast Guard Vessel Documentation Center.

Last reported at 2017-Jun-27 10:31 UTC. Time now 2017-Jun-27 10:28 UTC.
Position N 46°59' W 124°33'.

Length 43 m; draft 5 m.

Type: Fishing. MMSI: 366468000.

Date/timePositionNaut miles runAvg speedWind from/ knotsBaromVisibWave heightAir tempDewpointWater temp
2017-Jun-27 10:31N 46°59' W 124°33'4 8.2
2017-Jun-27 10:00N 46°58' W 124°27'4 8.5
2017-Jun-27 09:30N 46°56' W 124°21'4 8.5
2017-Jun-27 09:00N 46°55' W 124°15'4 7.8
2017-Jun-27 08:30N 46°55' W 124°09'2 2.9
2017-Jun-27 07:54N 46°54' W 124°06'0 0.0
2017-Jun-27 07:28N 46°54' W 124°06'0 0.0
2017-Jun-27 06:54N 46°54' W 124°06'0 0.0
2017-Jun-27 06:14N 46°54' W 124°06'0 0.0
2017-Jun-27 05:59N 46°54' W 124°06'0 0.0
2017-Jun-27 05:30N 46°54' W 124°06'0 0.0
2017-Jun-27 04:58N 46°54' W 124°06'0 0.0
2017-Jun-27 03:54N 46°54' W 124°06'0 0.0
2017-Jun-27 03:14N 46°54' W 124°06'0 0.0
2017-Jun-27 02:41N 46°54' W 124°06'0 0.0
2017-Jun-27 01:56N 46°54' W 124°06'0 0.0
2017-Jun-27 00:50N 46°54' W 124°06'0 0.0
2017-Jun-27 00:25N 46°54' W 124°06'0 0.0
2017-Jun-26 23:42N 46°54' W 124°06'0 0.0
2017-Jun-26 23:27N 46°54' W 124°06'0 0.0
2017-Jun-26 23:00N 46°54' W 124°06'0 0.0
2017-Jun-26 21:51N 46°54' W 124°06'0 0.0
2017-Jun-26 20:51N 46°54' W 124°06'0 0.0
2017-Jun-26 20:27N 46°54' W 124°06'0 0.1
2017-Jun-26 19:59N 46°54' W 124°06'0 0.0
2017-Jun-26 19:30N 46°54' W 124°06'0 0.0
2017-Jun-26 18:51N 46°54' W 124°06'0 0.0
2017-Jun-26 18:30N 46°54' W 124°06'0 0.0
2017-Jun-26 17:51N 46°54' W 124°06'0 0.0
2017-Jun-26 17:28N 46°54' W 124°06'0 0.0
2017-Jun-26 16:49N 46°54' W 124°06'0 0.0
2017-Jun-26 16:28N 46°54' W 124°06'0 0.0
2017-Jun-26 15:57N 46°54' W 124°06'0 0.0
2017-Jun-26 15:30N 46°54' W 124°06'0 0.0
2017-Jun-26 14:55N 46°54' W 124°06'0 0.0
2017-Jun-26 14:26N 46°54' W 124°06'0 0.0
2017-Jun-26 13:27N 46°54' W 124°06'0 0.0
2017-Jun-26 12:59N 46°54' W 124°06'0 0.0
2017-Jun-26 12:27N 46°54' W 124°06'0 0.0
2017-Jun-26 11:58N 46°54' W 124°06'0 0.0
2017-Jun-26 11:30N 46°54' W 124°06'0 0.0
2017-Jun-26 11:00N 46°54' W 124°06'0 0.0
2017-Jun-26 10:30N 46°54' W 124°06'0 0.0
2017-Jun-26 10:00N 46°54' W 124°06'0 0.0
2017-Jun-26 09:30N 46°54' W 124°06'0 0.0
2017-Jun-26 09:00N 46°54' W 124°06'0 0.0
2017-Jun-26 08:30N 46°54' W 124°06'0 0.0
2017-Jun-26 08:00N 46°54' W 124°06'0 0.0
2017-Jun-26 07:30N 46°54' W 124°06'0 0.0
2017-Jun-26 07:00N 46°54' W 124°06'0 0.0
2017-Jun-26 06:30N 46°54' W 124°06'0 0.0
2017-Jun-26 06:00N 46°54' W 124°06'0 0.0
2017-Jun-26 05:30N 46°54' W 124°06'0 0.3
2017-Jun-26 05:00N 46°55' W 124°06'3 7.0
2017-Jun-26 04:30N 46°55' W 124°12'5 9.5
2017-Jun-26 04:00N 46°53' W 124°18'5 9.7
2017-Jun-26 03:31N 46°51' W 124°25'510.0
2017-Jun-26 03:01N 46°49' W 124°31'510.2
2017-Jun-26 02:30N 46°47' W 124°38'510.3
2017-Jun-26 02:01N 46°45' W 124°45'4 7.5
2017-Jun-26 01:30N 46°43' W 124°49'1 2.3
2017-Jun-26 01:00N 46°42' W 124°48'0 0.9
2017-Jun-26 00:31N 46°42' W 124°49'2 3.2
2017-Jun-26 00:00N 46°44' W 124°50'2 3.3
2017-Jun-25 23:30N 46°45' W 124°50'2 3.5
2017-Jun-25 23:01N 46°47' W 124°51'2 3.3
2017-Jun-25 22:30N 46°48' W 124°53'2 3.6
2017-Jun-25 22:00N 46°50' W 124°54'0 0.5
2017-Jun-25 21:31N 46°50' W 124°54'3 5.2
2017-Jun-25 21:00N 46°48' W 124°53'1 2.5
2017-Jun-25 20:30N 46°47' W 124°52'1 1.0
2017-Jun-25 20:00N 46°47' W 124°51'1 2.6
2017-Jun-25 19:30N 46°48' W 124°52'2 3.2
2017-Jun-25 19:00N 46°49' W 124°54'2 3.0
2017-Jun-25 18:30N 46°50' W 124°55'2 3.7
2017-Jun-25 18:01N 46°52' W 124°55'2 3.7
2017-Jun-25 17:30N 46°52' W 124°53'5 9.2
2017-Jun-25 17:00N 46°53' W 124°46'5 9.4
2017-Jun-25 16:31N 46°54' W 124°39'5 9.6
2017-Jun-25 16:01N 46°54' W 124°32'5 9.7
2017-Jun-25 15:30N 46°54' W 124°25'510.1
2017-Jun-25 15:00N 46°54' W 124°18'8 7.6
2017-Jun-25 14:00N 46°54' W 124°06'0 0.0
2017-Jun-25 13:29N 46°54' W 124°06'0 0.0
2017-Jun-25 13:00N 46°54' W 124°06'0 0.0
2017-Jun-25 12:30N 46°54' W 124°06'0 0.0
2017-Jun-25 12:00N 46°54' W 124°06'0 0.0
2017-Jun-25 11:29N 46°54' W 124°06'0 0.0
2017-Jun-25 11:00N 46°54' W 124°06'0 0.0
2017-Jun-25 10:28N 46°54' W 124°06'0 0.0
2017-Jun-25 09:59N 46°54' W 124°06'0 0.0
2017-Jun-25 09:30N 46°54' W 124°06'0 0.0
2017-Jun-25 09:00N 46°54' W 124°06'0 0.0
2017-Jun-25 08:30N 46°54' W 124°06'0 0.0
2017-Jun-25 07:59N 46°54' W 124°06'0 0.0
2017-Jun-25 07:30N 46°54' W 124°06'0 0.0
2017-Jun-25 07:00N 46°54' W 124°06'0 0.0
2017-Jun-25 06:30N 46°54' W 124°06'0 0.4
2017-Jun-25 06:00N 46°55' W 124°07'0 0.1
2017-Jun-25 04:31N 46°55' W 124°07'0 0.0
2017-Jun-25 04:28N 46°55' W 124°07'0 0.0
2017-Jun-25 03:58N 46°55' W 124°07'0 0.0
2017-Jun-25 03:30N 46°55' W 124°07'0 0.0
2017-Jun-25 03:00N 46°55' W 124°07'0 0.0
2017-Jun-25 02:30N 46°55' W 124°07'2 4.4
2017-Jun-25 02:00N 46°55' W 124°10'5 9.0
2017-Jun-25 01:30N 46°58' W 124°15'510.5
2017-Jun-25 01:00N 47°02' W 124°20'510.3
2017-Jun-25 00:30N 47°06' W 124°24'510.9
2017-Jun-25 00:00N 47°10' W 124°29'611.2
2017-Jun-24 23:30N 47°15' W 124°35'611.2
2017-Jun-24 22:59N 47°19' W 124°40'610.1
2017-Jun-24 22:23N 47°24' W 124°45'411.0
2017-Jun-24 22:00N 47°27' W 124°49'711.1
2017-Jun-24 21:24N 47°32' W 124°55'910.7
2017-Jun-24 20:37N 47°39' W 125°03'2 5.4
2017-Jun-24 20:15N 47°40' W 125°05'1 2.7
2017-Jun-24 19:57N 47°41' W 125°06'2 2.7
2017-Jun-24 19:21N 47°43' W 125°05'1 3.6
2017-Jun-24 19:00N 47°44' W 125°05'1 2.4
2017-Jun-24 18:30N 47°45' W 125°05'1 2.9
2017-Jun-24 18:00N 47°45' W 125°03'2 3.4
2017-Jun-24 17:28N 47°44' W 125°04'3 1.8
2017-Jun-24 15:51N 47°41' W 125°06'18 8.9
2017-Jun-24 13:50N 47°26' W 124°50'3 8.8
2017-Jun-24 13:30N 47°24' W 124°48'4 8.6
2017-Jun-24 13:00N 47°20' W 124°47'4 8.1
2017-Jun-24 12:30N 47°16' W 124°43'5 7.9
2017-Jun-24 11:50N 47°13' W 124°38'3 7.8
2017-Jun-24 11:30N 47°11' W 124°35'4 7.8
2017-Jun-24 11:00N 47°08' W 124°31'4 8.0
2017-Jun-24 10:30N 47°05' W 124°27'4 8.1
2017-Jun-24 10:00N 47°02' W 124°23'4 8.1
2017-Jun-24 09:31N 46°59' W 124°19'4 8.1
2017-Jun-24 09:00N 46°56' W 124°15'5 9.4
2017-Jun-24 08:30N 46°55' W 124°08'1 2.3
2017-Jun-24 08:00N 46°54' W 124°06'0 0.0
2017-Jun-24 07:30N 46°54' W 124°06'0 0.0
2017-Jun-24 07:00N 46°54' W 124°06'0 0.0
2017-Jun-24 06:30N 46°54' W 124°06'0 0.0
2017-Jun-24 06:00N 46°54' W 124°06'0 0.0
2017-Jun-24 05:30N 46°54' W 124°06'0 0.0
2017-Jun-24 05:00N 46°54' W 124°06'0 0.0
2017-Jun-24 04:30N 46°54' W 124°06'0 0.0
2017-Jun-24 04:00N 46°54' W 124°06'0 0.0
2017-Jun-24 03:29N 46°54' W 124°06'0 0.0
2017-Jun-24 03:00N 46°54' W 124°06'4 7.9
2017-Jun-24 02:30N 46°55' W 124°12'4 8.3
2017-Jun-24 02:00N 46°54' W 124°06'0 0.0
2017-Jun-24 01:29N 46°54' W 124°06'2 3.3
2017-Jun-24 00:54N 46°55' W 124°09'3 8.4
2017-Jun-24 00:31N 46°56' W 124°13'611.0
2017-Jun-24 00:00N 47°01' W 124°18'611.2
2017-Jun-23 23:30N 47°05' W 124°23'611.1
2017-Jun-23 23:00N 47°10' W 124°28'611.2
2017-Jun-23 22:28N 47°15' W 124°33'611.5
2017-Jun-23 22:00N 47°19' W 124°38'611.5
2017-Jun-23 21:30N 47°23' W 124°43'611.3
2017-Jun-23 21:00N 47°28' W 124°48'611.2
2017-Jun-23 20:30N 47°32' W 124°53'611.1
2017-Jun-23 20:00N 47°37' W 124°58'510.5
2017-Jun-23 19:30N 47°41' W 125°03'4 7.0
2017-Jun-23 19:00N 47°44' W 125°06'1 2.0
2017-Jun-23 18:30N 47°45' W 125°07'1 2.0
2017-Jun-23 18:00N 47°45' W 125°05'1 2.2
2017-Jun-23 17:30N 47°44' W 125°05'2 3.2
2017-Jun-23 17:00N 47°42' W 125°05'1 2.9
2017-Jun-23 16:30N 47°41' W 125°07'4 8.8
2017-Jun-23 16:00N 47°37' W 125°06'0 0.5
2017-Jun-23 15:29N 47°37' W 125°05'4 8.7
2017-Jun-23 15:00N 47°33' W 125°03'4 8.5
2017-Jun-23 14:29N 47°30' W 124°58'4 8.6
2017-Jun-23 14:00N 47°28' W 124°53'4 7.4
2017-Jun-23 13:30N 47°26' W 124°49'3 6.3
2017-Jun-23 13:00N 47°23' W 124°48'3 5.2
2017-Jun-23 12:30N 47°20' W 124°46'2 3.9
2017-Jun-23 12:00N 47°18' W 124°46'2 4.2
2017-Jun-23 11:30N 47°16' W 124°46'2 4.2
2017-Jun-23 11:00N 47°18' W 124°46'2 3.7
2017-Jun-23 10:30N 47°20' W 124°47'2 3.3
2017-Jun-23 10:00N 47°20' W 124°49'1 2.0
2017-Jun-23 09:30N 47°19' W 124°49'1 2.0
2017-Jun-23 09:00N 47°19' W 124°48'1 2.0
2017-Jun-23 08:30N 47°18' W 124°47'2 4.5
2017-Jun-23 08:00N 47°20' W 124°48'1 1.9
2017-Jun-23 07:30N 47°21' W 124°49'1 1.8
2017-Jun-23 07:00N 47°20' W 124°49'1 1.7
2017-Jun-23 06:30N 47°19' W 124°49'1 1.5
2017-Jun-23 06:00N 47°18' W 124°48'1 1.1
2017-Jun-23 05:30N 47°18' W 124°47'2 3.4
2017-Jun-23 05:00N 47°20' W 124°47'1 2.7
2017-Jun-23 04:30N 47°21' W 124°47'2 3.7
2017-Jun-23 04:00N 47°23' W 124°47'2 3.9
2017-Jun-23 03:30N 47°25' W 124°49'3 3.6
2017-Jun-23 02:47N 47°27' W 124°51'1 4.5
2017-Jun-23 02:29N 47°28' W 124°52'1 1.7
2017-Jun-23 02:00N 47°27' W 124°51'1 2.3
2017-Jun-23 01:30N 47°27' W 124°50'1 1.1
2017-Jun-23 01:00N 47°27' W 124°50'2 3.1
2017-Jun-23 00:20N 47°25' W 124°48'1 3.0
2017-Jun-23 00:00N 47°24' W 124°47'2 3.1
2017-Jun-22 23:30N 47°22' W 124°47'2 3.2
2017-Jun-22 23:00N 47°21' W 124°47'1 1.8
2017-Jun-22 22:30N 47°20' W 124°47'1 2.1
2017-Jun-22 22:00N 47°19' W 124°46'4 8.2
2017-Jun-22 21:30N 47°16' W 124°42'4 8.2
2017-Jun-22 21:00N 47°13' W 124°38'4 8.5
2017-Jun-22 20:30N 47°10' W 124°34'4 8.6
2017-Jun-22 20:00N 47°07' W 124°29'1225.1
2017-Jun-22 19:30N 46°57' W 124°17'4 8.6
2017-Jun-22 19:00N 47°01' W 124°21'4 8.7
2017-Jun-22 18:30N 46°57' W 124°17'2 4.4
2017-Jun-22 18:01N 46°56' W 124°15'4 8.0
2017-Jun-22 17:30N 46°55' W 124°09'2 3.5
2017-Jun-22 16:59N 46°54' W 124°06'0 0.0
2017-Jun-22 16:30N 46°54' W 124°06'0 0.0
2017-Jun-22 16:00N 46°54' W 124°06'0 0.0
2017-Jun-22 15:30N 46°54' W 124°06'0 0.0
2017-Jun-22 15:00N 46°54' W 124°06'0 0.0
2017-Jun-22 14:00N 46°54' W 124°06'0 0.0
2017-Jun-22 13:30N 46°54' W 124°06'0 0.0
2017-Jun-22 13:00N 46°54' W 124°06'0 0.0
2017-Jun-22 12:30N 46°54' W 124°06'0 0.0
2017-Jun-22 12:00N 46°54' W 124°06'0 0.0
2017-Jun-22 11:29N 46°54' W 124°06'0 0.0
2017-Jun-22 11:00N 46°54' W 124°06'0 0.0
2017-Jun-22 10:30N 46°54' W 124°06'0 0.0
2017-Jun-22 10:00N 46°54' W 124°06'0 0.0
2017-Jun-22 09:30N 46°54' W 124°06'0 0.0
2017-Jun-22 09:00N 46°54' W 124°06'0 0.0
2017-Jun-22 08:30N 46°54' W 124°06'0 0.0
2017-Jun-22 08:00N 46°54' W 124°06'0 0.0
2017-Jun-22 07:29N 46°54' W 124°06'0 0.0
2017-Jun-22 07:00N 46°54' W 124°06'0 0.0
2017-Jun-22 06:29N 46°54' W 124°06'0 0.0
2017-Jun-22 06:00N 46°54' W 124°06'0 0.0
2017-Jun-22 05:29N 46°54' W 124°06'0 0.0
2017-Jun-22 05:00N 46°54' W 124°06'0 0.0
2017-Jun-22 04:30N 46°54' W 124°06'0 0.0
2017-Jun-22 04:00N 46°54' W 124°06'0 0.0
2017-Jun-22 03:30N 46°54' W 124°06'0 0.0
2017-Jun-22 02:42N 46°54' W 124°06'0 0.0
2017-Jun-22 02:27N 46°54' W 124°06'613.7
2017-Jun-22 01:59N 46°57' W 124°15'5 9.1
2017-Jun-22 01:29N 46°55' W 124°09'5 9.8
2017-Jun-22 01:00N 46°57' W 124°14'510.8
2017-Jun-22 00:30N 47°01' W 124°20'32 8.9
2017-Jun-21 20:54N 47°26' W 124°50'18 3.2
2017-Jun-21 15:17N 47°11' W 124°36'3 8.5
2017-Jun-21 14:55N 47°09' W 124°33'4 8.6
2017-Jun-21 14:30N 47°06' W 124°29'9 8.6
2017-Jun-21 13:30N 46°60' W 124°21'4 8.1
2017-Jun-21 13:00N 46°57' W 124°17'3 7.0
2017-Jun-21 12:30N 46°55' W 124°12'4 7.9
2017-Jun-21 12:00N 46°54' W 124°06'0 0.1
2017-Jun-21 10:24N 46°54' W 124°06'0 0.0
2017-Jun-21 09:59N 46°54' W 124°06'0 0.0
2017-Jun-21 09:16N 46°54' W 124°06'0 0.0
2017-Jun-21 09:00N 46°54' W 124°06'0 0.0
2017-Jun-21 08:30N 46°54' W 124°06'0 0.0
2017-Jun-21 08:00N 46°54' W 124°06'0 0.0
2017-Jun-21 07:29N 46°54' W 124°06'0 0.0
2017-Jun-21 07:00N 46°54' W 124°06'0 0.0
2017-Jun-21 06:30N 46°54' W 124°06'0 0.0
2017-Jun-21 06:00N 46°54' W 124°06'0 0.0
2017-Jun-21 05:30N 46°54' W 124°06'0 0.0
2017-Jun-21 04:58N 46°54' W 124°06'0 0.0
2017-Jun-21 04:30N 46°54' W 124°06'0 0.0
2017-Jun-21 04:00N 46°54' W 124°06'0 0.0
2017-Jun-21 03:29N 46°54' W 124°06'0 0.0
2017-Jun-21 02:58N 46°54' W 124°06'0 0.0
2017-Jun-21 02:30N 46°54' W 124°06'0 0.0
2017-Jun-21 01:59N 46°54' W 124°06'0 0.0
2017-Jun-21 01:30N 46°54' W 124°06'0 0.0
2017-Jun-21 00:59N 46°54' W 124°06'0 0.0
2017-Jun-21 00:27N 46°54' W 124°06'0 0.0
2017-Jun-20 23:58N 46°54' W 124°06'0 0.0
2017-Jun-20 23:29N 46°54' W 124°06'0 0.0
2017-Jun-20 23:00N 46°54' W 124°06'0 0.0
2017-Jun-20 22:30N 46°54' W 124°06'0 0.0
2017-Jun-20 21:59N 46°54' W 124°06'0 0.0
2017-Jun-20 21:30N 46°54' W 124°06'2 4.5
2017-Jun-20 21:01N 46°55' W 124°10'510.1
2017-Jun-20 20:28N 46°58' W 124°16'511.5
2017-Jun-20 20:00N 47°02' W 124°21'24 2.9
2017-Jun-20 11:38N 47°19' W 124°47'1 4.2
2017-Jun-20 11:17N 47°20' W 124°48'1 4.1
2017-Jun-20 10:59N 47°22' W 124°48'1 1.8
2017-Jun-20 10:13N 47°23' W 124°49'0 0.5
2017-Jun-20 09:59N 47°23' W 124°49'1 0.4
2017-Jun-20 08:28N 47°23' W 124°50'0 0.4
2017-Jun-20 07:56N 47°23' W 124°51'0 0.3
2017-Jun-20 06:09N 47°23' W 124°51'3 2.3
2017-Jun-20 04:37N 47°26' W 124°49'2 1.4
2017-Jun-20 03:04N 47°27' W 124°51'0 3.6
2017-Jun-20 02:59N 47°27' W 124°50'4 3.2
2017-Jun-20 01:50N 47°24' W 124°48'9 3.7
2017-Jun-19 23:18N 47°16' W 124°55'8 9.1
2017-Jun-19 22:22N 47°08' W 124°60'4 9.5
2017-Jun-19 22:00N 47°05' W 124°58'6 8.3
2017-Jun-19 21:16N 46°59' W 124°59'3 9.8
2017-Jun-19 21:00N 46°57' W 124°57'6 9.8
2017-Jun-19 20:26N 46°51' W 124°55'4 9.7
2017-Jun-19 20:00N 46°47' W 124°53'5 9.4
2017-Jun-19 19:30N 46°43' W 124°49'5 9.3
2017-Jun-19 19:01N 46°40' W 124°44'2 3.2
2017-Jun-19 18:31N 46°39' W 124°43'1 2.4
2017-Jun-19 18:01N 46°38' W 124°42'2 3.3
2017-Jun-19 17:31N 46°37' W 124°40'2 3.4
2017-Jun-19 17:01N 46°36' W 124°38'1 1.3
2017-Jun-19 16:29N 46°35' W 124°38'1 3.1
2017-Jun-19 16:00N 46°36' W 124°39'2 3.3
2017-Jun-19 15:30N 46°37' W 124°41'2 3.5
2017-Jun-19 15:00N 46°39' W 124°42'3 2.8
2017-Jun-19 14:01N 46°39' W 124°46'4 8.4
2017-Jun-19 13:30N 46°43' W 124°49'4 8.5
2017-Jun-19 13:00N 46°47' W 124°52'4 8.9
2017-Jun-19 12:30N 46°50' W 124°56'3 6.0
2017-Jun-19 11:58N 46°53' W 124°54'0 0.6
2017-Jun-19 11:30N 46°54' W 124°54'1 2.4
2017-Jun-19 11:00N 46°54' W 124°53'2 3.4
2017-Jun-19 10:30N 46°54' W 124°50'3 3.4
2017-Jun-19 09:44N 46°54' W 124°46'1 3.5
2017-Jun-19 09:24N 46°54' W 124°44'1 3.5
2017-Jun-19 09:00N 46°54' W 124°42'2 3.5
2017-Jun-19 08:30N 46°54' W 124°40'2 3.5
2017-Jun-19 08:00N 46°54' W 124°37'2 3.3
2017-Jun-19 07:30N 46°54' W 124°35'2 3.1
2017-Jun-19 07:01N 46°54' W 124°33'2 3.2
2017-Jun-19 06:30N 46°54' W 124°30'2 3.2
2017-Jun-19 06:00N 46°54' W 124°28'2 3.5
2017-Jun-19 05:31N 46°54' W 124°25'2 3.8
2017-Jun-19 05:01N 46°55' W 124°23'2 3.7
2017-Jun-19 04:31N 46°55' W 124°20'2 3.5
2017-Jun-19 04:01N 46°55' W 124°17'3 7.0
2017-Jun-19 03:30N 46°55' W 124°12'4 7.6
2017-Jun-19 02:59N 46°54' W 124°06'0 0.1
2017-Jun-19 02:13N 46°54' W 124°06'0 0.0
2017-Jun-19 01:43N 46°54' W 124°06'0 0.0
2017-Jun-19 01:25N 46°54' W 124°06'0 0.0
2017-Jun-19 00:58N 46°54' W 124°06'0 0.0
2017-Jun-19 00:21N 46°54' W 124°06'0 0.0
2017-Jun-18 23:53N 46°54' W 124°06'0 0.0
2017-Jun-18 22:41N 46°54' W 124°06'0 0.0
2017-Jun-18 22:30N 46°54' W 124°06'0 0.0
2017-Jun-18 21:54N 46°54' W 124°06'0 0.0
2017-Jun-18 21:30N 46°54' W 124°06'0 0.0
2017-Jun-18 20:46N 46°54' W 124°06'0 0.0
2017-Jun-18 20:25N 46°54' W 124°06'0 0.0
2017-Jun-18 20:00N 46°54' W 124°06'0 0.0
2017-Jun-18 19:05N 46°54' W 124°06'0 0.1
2017-Jun-18 19:00N 46°54' W 124°06'0 0.0
2017-Jun-18 18:27N 46°54' W 124°06'0 0.0
2017-Jun-18 18:00N 46°54' W 124°06'0 0.0
2017-Jun-18 17:30N 46°54' W 124°06'0 0.0
2017-Jun-18 17:00N 46°54' W 124°06'0 0.0
2017-Jun-18 16:30N 46°54' W 124°06'0 0.0
2017-Jun-18 15:56N 46°54' W 124°06'0 0.0
2017-Jun-18 15:30N 46°54' W 124°06'0 0.0
2017-Jun-18 15:00N 46°54' W 124°06'0 0.0
2017-Jun-18 13:59N 46°54' W 124°06'0 0.0
2017-Jun-18 13:30N 46°54' W 124°06'0 0.0
2017-Jun-18 13:00N 46°54' W 124°06'0 0.0
2017-Jun-18 12:29N 46°54' W 124°06'0 0.0
2017-Jun-18 12:00N 46°54' W 124°06'0 0.0
2017-Jun-18 11:30N 46°54' W 124°06'0 0.0
2017-Jun-18 10:59N 46°54' W 124°06'0 0.0
2017-Jun-18 10:30N 46°54' W 124°06'0 0.0
2017-Jun-18 10:00N 46°54' W 124°06'0 0.0
2017-Jun-18 09:30N 46°54' W 124°06'0 0.0
2017-Jun-18 09:00N 46°54' W 124°06'0 0.0
2017-Jun-18 08:30N 46°54' W 124°06'0 0.0
2017-Jun-18 08:00N 46°54' W 124°06'0 0.0
2017-Jun-18 07:30N 46°54' W 124°06'0 0.0
2017-Jun-18 07:00N 46°54' W 124°06'0 0.0
2017-Jun-18 06:30N 46°54' W 124°06'0 0.0
2017-Jun-18 05:59N 46°54' W 124°06'0 0.0
2017-Jun-18 05:30N 46°54' W 124°06'0 0.0
2017-Jun-18 04:58N 46°54' W 124°06'0 0.3
2017-Jun-18 04:31N 46°55' W 124°06'3 6.8
2017-Jun-18 04:00N 46°55' W 124°12'5 9.2
2017-Jun-18 03:30N 46°52' W 124°17'5 9.3
2017-Jun-18 03:00N 46°49' W 124°22'5 9.0
2017-Jun-18 02:30N 46°46' W 124°27'5 9.2
2017-Jun-18 02:00N 46°44' W 124°33'5 9.7
2017-Jun-18 01:31N 46°41' W 124°38'3 6.0
2017-Jun-18 01:00N 46°39' W 124°42'1 1.2
2017-Jun-18 00:31N 46°38' W 124°42'1 3.0
2017-Jun-18 00:00N 46°37' W 124°41'2 3.4
2017-Jun-17 23:30N 46°36' W 124°39'1 2.2
2017-Jun-17 23:00N 46°35' W 124°38'1 2.7
2017-Jun-17 22:31N 46°36' W 124°39'2 3.4
2017-Jun-17 22:01N 46°37' W 124°41'2 3.7
2017-Jun-17 21:31N 46°39' W 124°43'1 2.9
2017-Jun-17 21:01N 46°38' W 124°41'1 1.5
2017-Jun-17 20:31N 46°38' W 124°40'1 1.7
2017-Jun-17 20:00N 46°38' W 124°41'1 1.9
2017-Jun-17 19:30N 46°37' W 124°40'2 3.5
2017-Jun-17 19:00N 46°36' W 124°39'1 2.1
2017-Jun-17 18:31N 46°35' W 124°37'2 3.2
2017-Jun-17 18:01N 46°37' W 124°39'2 3.2
2017-Jun-17 17:31N 46°38' W 124°41'2 3.7
2017-Jun-17 17:00N 46°39' W 124°42'2 4.2
2017-Jun-17 16:30N 46°37' W 124°40'2 3.9
2017-Jun-17 16:01N 46°38' W 124°43'0 0.2
2017-Jun-17 15:30N 46°38' W 124°43'1 1.9
2017-Jun-17 15:00N 46°39' W 124°42'0 0.3
2017-Jun-17 14:00N 46°39' W 124°42'5 9.9
2017-Jun-17 13:30N 46°42' W 124°37'5 9.8
2017-Jun-17 13:01N 46°45' W 124°31'5 9.7
2017-Jun-17 12:30N 46°48' W 124°26'5 9.9
2017-Jun-17 11:59N 46°51' W 124°20'5 9.3
2017-Jun-17 11:30N 46°54' W 124°15'5 9.7
2017-Jun-17 11:00N 46°55' W 124°08'1 2.0
2017-Jun-17 10:26N 46°54' W 124°06'  

Dump ship's entire track history